sensor_id;sensor_type;location;lat;lon;timestamp;P1;durP1;ratioP1;P2;durP2;ratioP2
37445;SDS011;23307;51.136;14.942;2022-11-20T00:00:26;22.30;;;13.37;;
37445;SDS011;23307;51.136;14.942;2022-11-20T00:02:51;20.73;;;12.67;;
37445;SDS011;23307;51.136;14.942;2022-11-20T00:05:17;20.37;;;14.43;;
37445;SDS011;23307;51.136;14.942;2022-11-20T00:07:43;21.13;;;13.40;;
37445;SDS011;23307;51.136;14.942;2022-11-20T00:10:08;22.47;;;13.53;;
37445;SDS011;23307;51.136;14.942;2022-11-20T00:12:34;20.33;;;13.30;;
37445;SDS011;23307;51.136;14.942;2022-11-20T00:15:00;20.97;;;13.33;;
37445;SDS011;23307;51.136;14.942;2022-11-20T00:17:25;19.37;;;14.00;;
37445;SDS011;23307;51.136;14.942;2022-11-20T00:19:51;19.83;;;13.70;;
37445;SDS011;23307;51.136;14.942;2022-11-20T00:22:17;22.07;;;13.97;;
37445;SDS011;23307;51.136;14.942;2022-11-20T00:24:42;19.70;;;13.43;;
37445;SDS011;23307;51.136;14.942;2022-11-20T00:27:08;20.97;;;13.07;;
37445;SDS011;23307;51.136;14.942;2022-11-20T00:29:33;18.30;;;12.80;;
37445;SDS011;23307;51.136;14.942;2022-11-20T00:31:59;18.33;;;11.83;;
37445;SDS011;23307;51.136;14.942;2022-11-20T00:34:24;20.67;;;13.47;;
37445;SDS011;23307;51.136;14.942;2022-11-20T00:36:50;19.70;;;12.83;;
37445;SDS011;23307;51.136;14.942;2022-11-20T00:39:15;19.53;;;13.13;;
37445;SDS011;23307;51.136;14.942;2022-11-20T00:41:41;20.17;;;13.40;;
37445;SDS011;23307;51.136;14.942;2022-11-20T00:44:06;21.30;;;13.33;;
37445;SDS011;23307;51.136;14.942;2022-11-20T00:46:32;21.23;;;13.30;;
37445;SDS011;23307;51.136;14.942;2022-11-20T00:48:58;22.40;;;13.77;;
37445;SDS011;23307;51.136;14.942;2022-11-20T00:51:24;19.93;;;13.23;;
37445;SDS011;23307;51.136;14.942;2022-11-20T00:53:50;20.70;;;13.43;;
37445;SDS011;23307;51.136;14.942;2022-11-20T00:56:17;22.03;;;13.57;;
37445;SDS011;23307;51.136;14.942;2022-11-20T00:58:44;19.80;;;12.80;;
37445;SDS011;23307;51.136;14.942;2022-11-20T01:01:16;19.90;;;13.60;;
37445;SDS011;23307;51.136;14.942;2022-11-20T01:03:43;21.30;;;14.20;;
37445;SDS011;23307;51.136;14.942;2022-11-20T01:06:17;19.17;;;12.80;;
37445;SDS011;23307;51.136;14.942;2022-11-20T01:08:45;19.07;;;13.37;;
37445;SDS011;23307;51.136;14.942;2022-11-20T01:11:15;20.37;;;13.63;;
37445;SDS011;23307;51.136;14.942;2022-11-20T01:13:43;19.13;;;12.90;;
37445;SDS011;23307;51.136;14.942;2022-11-20T01:16:23;19.73;;;13.17;;
37445;SDS011;23307;51.136;14.942;2022-11-20T01:18:55;20.90;;;13.43;;
37445;SDS011;23307;51.136;14.942;2022-11-20T01:21:23;21.30;;;13.93;;
37445;SDS011;23307;51.136;14.942;2022-11-20T01:23:50;20.60;;;13.20;;
37445;SDS011;23307;51.136;14.942;2022-11-20T01:26:18;21.27;;;13.67;;
37445;SDS011;23307;51.136;14.942;2022-11-20T01:28:45;20.67;;;13.00;;
37445;SDS011;23307;51.136;14.942;2022-11-20T01:31:16;18.60;;;12.27;;
37445;SDS011;23307;51.136;14.942;2022-11-20T01:33:47;23.00;;;13.57;;
37445;SDS011;23307;51.136;14.942;2022-11-20T01:36:14;21.20;;;13.43;;
37445;SDS011;23307;51.136;14.942;2022-11-20T01:38:41;22.17;;;13.67;;
37445;SDS011;23307;51.136;14.942;2022-11-20T01:41:07;19.77;;;13.00;;
37445;SDS011;23307;51.136;14.942;2022-11-20T01:43:34;20.37;;;13.07;;
37445;SDS011;23307;51.136;14.942;2022-11-20T01:48:41;20.20;;;13.20;;
37445;SDS011;23307;51.136;14.942;2022-11-20T01:51:12;20.63;;;13.47;;
37445;SDS011;23307;51.136;14.942;2022-11-20T01:53:45;19.47;;;12.93;;
37445;SDS011;23307;51.136;14.942;2022-11-20T01:56:12;20.37;;;12.60;;
37445;SDS011;23307;51.136;14.942;2022-11-20T01:58:41;20.53;;;12.70;;
37445;SDS011;23307;51.136;14.942;2022-11-20T02:01:11;18.50;;;11.77;;
37445;SDS011;23307;51.136;14.942;2022-11-20T02:03:38;17.57;;;11.80;;
37445;SDS011;23307;51.136;14.942;2022-11-20T02:06:05;17.63;;;11.60;;
37445;SDS011;23307;51.136;14.942;2022-11-20T02:08:38;18.33;;;12.43;;
37445;SDS011;23307;51.136;14.942;2022-11-20T02:11:04;18.77;;;12.27;;
37445;SDS011;23307;51.136;14.942;2022-11-20T02:13:29;20.03;;;12.77;;
37445;SDS011;23307;51.136;14.942;2022-11-20T02:18:56;18.37;;;12.40;;
37445;SDS011;23307;51.136;14.942;2022-11-20T02:26:18;19.13;;;12.13;;
37445;SDS011;23307;51.136;14.942;2022-11-20T02:28:46;18.93;;;12.57;;
37445;SDS011;23307;51.136;14.942;2022-11-20T02:31:12;19.53;;;12.93;;
37445;SDS011;23307;51.136;14.942;2022-11-20T02:33:38;19.57;;;12.50;;
37445;SDS011;23307;51.136;14.942;2022-11-20T02:36:03;19.27;;;12.67;;
37445;SDS011;23307;51.136;14.942;2022-11-20T02:38:29;19.93;;;12.37;;
37445;SDS011;23307;51.136;14.942;2022-11-20T02:40:55;17.70;;;12.53;;
37445;SDS011;23307;51.136;14.942;2022-11-20T02:43:21;18.53;;;12.27;;
37445;SDS011;23307;51.136;14.942;2022-11-20T02:45:47;19.33;;;12.17;;
37445;SDS011;23307;51.136;14.942;2022-11-20T02:48:12;18.13;;;11.83;;
37445;SDS011;23307;51.136;14.942;2022-11-20T02:50:38;20.17;;;12.07;;
37445;SDS011;23307;51.136;14.942;2022-11-20T02:53:05;18.47;;;12.20;;
37445;SDS011;23307;51.136;14.942;2022-11-20T02:55:31;16.03;;;11.70;;
37445;SDS011;23307;51.136;14.942;2022-11-20T02:57:56;17.77;;;12.30;;
37445;SDS011;23307;51.136;14.942;2022-11-20T03:00:22;19.47;;;12.43;;
37445;SDS011;23307;51.136;14.942;2022-11-20T03:02:47;17.97;;;12.40;;
37445;SDS011;23307;51.136;14.942;2022-11-20T03:05:13;18.03;;;12.13;;
37445;SDS011;23307;51.136;14.942;2022-11-20T03:07:39;19.30;;;12.40;;
37445;SDS011;23307;51.136;14.942;2022-11-20T03:10:04;18.30;;;11.90;;
37445;SDS011;23307;51.136;14.942;2022-11-20T03:12:30;16.60;;;11.23;;
37445;SDS011;23307;51.136;14.942;2022-11-20T03:14:56;20.00;;;12.43;;
37445;SDS011;23307;51.136;14.942;2022-11-20T03:17:21;17.80;;;11.73;;
37445;SDS011;23307;51.136;14.942;2022-11-20T03:19:47;17.60;;;11.60;;
37445;SDS011;23307;51.136;14.942;2022-11-20T03:22:12;21.83;;;12.77;;
37445;SDS011;23307;51.136;14.942;2022-11-20T03:24:38;18.67;;;12.33;;
37445;SDS011;23307;51.136;14.942;2022-11-20T03:27:03;18.20;;;11.80;;
37445;SDS011;23307;51.136;14.942;2022-11-20T03:29:29;17.07;;;11.43;;
37445;SDS011;23307;51.136;14.942;2022-11-20T03:31:54;18.07;;;12.43;;
37445;SDS011;23307;51.136;14.942;2022-11-20T03:34:20;19.43;;;12.20;;
37445;SDS011;23307;51.136;14.942;2022-11-20T03:36:46;18.50;;;12.17;;
37445;SDS011;23307;51.136;14.942;2022-11-20T03:39:11;17.13;;;11.77;;
37445;SDS011;23307;51.136;14.942;2022-11-20T03:41:38;21.47;;;13.23;;
37445;SDS011;23307;51.136;14.942;2022-11-20T03:44:05;20.33;;;12.10;;
37445;SDS011;23307;51.136;14.942;2022-11-20T03:46:32;19.70;;;12.30;;
37445;SDS011;23307;51.136;14.942;2022-11-20T03:48:58;17.50;;;11.67;;
37445;SDS011;23307;51.136;14.942;2022-11-20T03:51:28;15.27;;;11.27;;
37445;SDS011;23307;51.136;14.942;2022-11-20T03:53:57;17.07;;;11.77;;
37445;SDS011;23307;51.136;14.942;2022-11-20T03:56:26;18.00;;;11.10;;
37445;SDS011;23307;51.136;14.942;2022-11-20T03:58:53;16.40;;;11.20;;
37445;SDS011;23307;51.136;14.942;2022-11-20T04:01:20;17.70;;;12.20;;
37445;SDS011;23307;51.136;14.942;2022-11-20T04:03:48;17.50;;;10.93;;
37445;SDS011;23307;51.136;14.942;2022-11-20T04:06:15;19.60;;;12.20;;
37445;SDS011;23307;51.136;14.942;2022-11-20T04:08:42;18.47;;;11.67;;
37445;SDS011;23307;51.136;14.942;2022-11-20T04:13:34;15.83;;;10.03;;
37445;SDS011;23307;51.136;14.942;2022-11-20T04:15:59;15.73;;;10.13;;
37445;SDS011;23307;51.136;14.942;2022-11-20T04:18:25;17.37;;;11.30;;
37445;SDS011;23307;51.136;14.942;2022-11-20T04:20:50;17.10;;;10.87;;
37445;SDS011;23307;51.136;14.942;2022-11-20T04:23:16;17.53;;;10.80;;
37445;SDS011;23307;51.136;14.942;2022-11-20T04:25:41;15.23;;;10.70;;
37445;SDS011;23307;51.136;14.942;2022-11-20T04:28:07;15.77;;;10.50;;
37445;SDS011;23307;51.136;14.942;2022-11-20T04:30:32;15.53;;;10.70;;
37445;SDS011;23307;51.136;14.942;2022-11-20T04:32:58;14.80;;;10.77;;
37445;SDS011;23307;51.136;14.942;2022-11-20T04:35:23;16.07;;;10.63;;
37445;SDS011;23307;51.136;14.942;2022-11-20T04:37:51;17.90;;;11.53;;
37445;SDS011;23307;51.136;14.942;2022-11-20T04:40:17;14.87;;;10.10;;
37445;SDS011;23307;51.136;14.942;2022-11-20T04:42:42;15.70;;;10.60;;
37445;SDS011;23307;51.136;14.942;2022-11-20T04:45:08;19.27;;;10.47;;
37445;SDS011;23307;51.136;14.942;2022-11-20T04:47:33;15.60;;;10.87;;
37445;SDS011;23307;51.136;14.942;2022-11-20T04:49:59;15.67;;;10.43;;
37445;SDS011;23307;51.136;14.942;2022-11-20T04:52:25;17.10;;;10.50;;
37445;SDS011;23307;51.136;14.942;2022-11-20T04:54:50;18.33;;;11.60;;
37445;SDS011;23307;51.136;14.942;2022-11-20T04:57:17;13.33;;;9.10;;
37445;SDS011;23307;51.136;14.942;2022-11-20T04:59:43;15.20;;;10.47;;
37445;SDS011;23307;51.136;14.942;2022-11-20T05:02:09;15.33;;;9.70;;
37445;SDS011;23307;51.136;14.942;2022-11-20T05:04:35;16.97;;;11.10;;
37445;SDS011;23307;51.136;14.942;2022-11-20T05:07:01;15.30;;;11.03;;
37445;SDS011;23307;51.136;14.942;2022-11-20T05:09:26;18.10;;;12.03;;
37445;SDS011;23307;51.136;14.942;2022-11-20T05:11:52;16.97;;;10.60;;
37445;SDS011;23307;51.136;14.942;2022-11-20T05:14:17;17.17;;;11.27;;
37445;SDS011;23307;51.136;14.942;2022-11-20T05:16:43;14.97;;;10.47;;
37445;SDS011;23307;51.136;14.942;2022-11-20T05:19:09;16.97;;;10.53;;
37445;SDS011;23307;51.136;14.942;2022-11-20T05:21:34;15.77;;;11.53;;
37445;SDS011;23307;51.136;14.942;2022-11-20T05:24:00;16.63;;;11.03;;
37445;SDS011;23307;51.136;14.942;2022-11-20T05:26:25;16.33;;;10.67;;
37445;SDS011;23307;51.136;14.942;2022-11-20T05:28:51;17.63;;;10.93;;
37445;SDS011;23307;51.136;14.942;2022-11-20T05:31:20;16.30;;;11.03;;
37445;SDS011;23307;51.136;14.942;2022-11-20T05:33:47;16.50;;;10.97;;
37445;SDS011;23307;51.136;14.942;2022-11-20T05:36:13;16.03;;;11.37;;
37445;SDS011;23307;51.136;14.942;2022-11-20T05:38:40;17.03;;;10.80;;
37445;SDS011;23307;51.136;14.942;2022-11-20T05:41:10;15.13;;;10.57;;
37445;SDS011;23307;51.136;14.942;2022-11-20T05:43:38;16.07;;;10.90;;
37445;SDS011;23307;51.136;14.942;2022-11-20T05:46:05;16.60;;;10.80;;
37445;SDS011;23307;51.136;14.942;2022-11-20T05:48:32;16.53;;;10.67;;
37445;SDS011;23307;51.136;14.942;2022-11-20T05:50:59;17.20;;;10.87;;
37445;SDS011;23307;51.136;14.942;2022-11-20T05:53:26;18.67;;;11.87;;
37445;SDS011;23307;51.136;14.942;2022-11-20T05:55:56;17.57;;;10.97;;
37445;SDS011;23307;51.136;14.942;2022-11-20T05:58:22;17.67;;;11.47;;
37445;SDS011;23307;51.136;14.942;2022-11-20T06:00:48;15.97;;;11.23;;
37445;SDS011;23307;51.136;14.942;2022-11-20T06:03:13;16.10;;;10.57;;
37445;SDS011;23307;51.136;14.942;2022-11-20T06:05:39;15.40;;;10.50;;
37445;SDS011;23307;51.136;14.942;2022-11-20T06:08:04;17.30;;;11.47;;
37445;SDS011;23307;51.136;14.942;2022-11-20T06:10:30;16.43;;;10.87;;
37445;SDS011;23307;51.136;14.942;2022-11-20T06:12:59;17.97;;;12.13;;
37445;SDS011;23307;51.136;14.942;2022-11-20T06:15:24;19.27;;;12.53;;
37445;SDS011;23307;51.136;14.942;2022-11-20T06:17:53;16.87;;;11.47;;
37445;SDS011;23307;51.136;14.942;2022-11-20T06:20:20;18.37;;;12.40;;
37445;SDS011;23307;51.136;14.942;2022-11-20T06:22:46;16.70;;;10.73;;
37445;SDS011;23307;51.136;14.942;2022-11-20T06:25:12;15.67;;;10.87;;
37445;SDS011;23307;51.136;14.942;2022-11-20T06:27:38;19.80;;;12.47;;
37445;SDS011;23307;51.136;14.942;2022-11-20T06:30:04;20.80;;;13.87;;
37445;SDS011;23307;51.136;14.942;2022-11-20T06:32:30;17.33;;;11.30;;
37445;SDS011;23307;51.136;14.942;2022-11-20T06:34:55;18.33;;;12.03;;
37445;SDS011;23307;51.136;14.942;2022-11-20T06:37:21;18.13;;;11.57;;
37445;SDS011;23307;51.136;14.942;2022-11-20T06:39:47;17.93;;;11.37;;
37445;SDS011;23307;51.136;14.942;2022-11-20T06:42:12;18.07;;;12.27;;
37445;SDS011;23307;51.136;14.942;2022-11-20T06:44:38;17.50;;;11.73;;
37445;SDS011;23307;51.136;14.942;2022-11-20T06:47:03;17.57;;;12.60;;
37445;SDS011;23307;51.136;14.942;2022-11-20T06:49:29;18.53;;;12.37;;
37445;SDS011;23307;51.136;14.942;2022-11-20T06:51:55;17.70;;;11.30;;
37445;SDS011;23307;51.136;14.942;2022-11-20T06:54:20;17.70;;;10.97;;
37445;SDS011;23307;51.136;14.942;2022-11-20T06:56:46;17.47;;;11.43;;
37445;SDS011;23307;51.136;14.942;2022-11-20T06:59:12;18.70;;;11.83;;
37445;SDS011;23307;51.136;14.942;2022-11-20T07:01:38;17.27;;;11.57;;
37445;SDS011;23307;51.136;14.942;2022-11-20T07:04:04;19.20;;;12.40;;
37445;SDS011;23307;51.136;14.942;2022-11-20T07:06:29;18.67;;;11.93;;
37445;SDS011;23307;51.136;14.942;2022-11-20T07:08:55;17.67;;;11.73;;
37445;SDS011;23307;51.136;14.942;2022-11-20T07:11:21;17.37;;;11.73;;
37445;SDS011;23307;51.136;14.942;2022-11-20T07:13:46;16.60;;;11.07;;
37445;SDS011;23307;51.136;14.942;2022-11-20T07:16:12;17.70;;;11.87;;
37445;SDS011;23307;51.136;14.942;2022-11-20T07:18:37;18.87;;;12.33;;
37445;SDS011;23307;51.136;14.942;2022-11-20T07:21:04;17.10;;;11.60;;
37445;SDS011;23307;51.136;14.942;2022-11-20T07:23:31;19.57;;;12.40;;
37445;SDS011;23307;51.136;14.942;2022-11-20T07:25:57;18.63;;;11.87;;
37445;SDS011;23307;51.136;14.942;2022-11-20T07:28:23;19.53;;;12.80;;
37445;SDS011;23307;51.136;14.942;2022-11-20T07:30:52;21.07;;;12.27;;
37445;SDS011;23307;51.136;14.942;2022-11-20T07:33:18;18.27;;;12.60;;
37445;SDS011;23307;51.136;14.942;2022-11-20T07:35:44;21.20;;;12.87;;
37445;SDS011;23307;51.136;14.942;2022-11-20T07:38:10;22.80;;;13.23;;
37445;SDS011;23307;51.136;14.942;2022-11-20T07:40:35;20.80;;;12.90;;
37445;SDS011;23307;51.136;14.942;2022-11-20T07:43:01;19.53;;;12.53;;
37445;SDS011;23307;51.136;14.942;2022-11-20T07:45:26;21.33;;;13.70;;
37445;SDS011;23307;51.136;14.942;2022-11-20T07:47:52;19.70;;;12.97;;
37445;SDS011;23307;51.136;14.942;2022-11-20T07:50:18;22.93;;;13.60;;
37445;SDS011;23307;51.136;14.942;2022-11-20T07:52:44;20.47;;;13.10;;
37445;SDS011;23307;51.136;14.942;2022-11-20T07:55:10;19.07;;;13.13;;
37445;SDS011;23307;51.136;14.942;2022-11-20T07:57:36;20.97;;;13.40;;
37445;SDS011;23307;51.136;14.942;2022-11-20T08:00:02;20.50;;;12.77;;
37445;SDS011;23307;51.136;14.942;2022-11-20T08:02:29;21.30;;;14.00;;
37445;SDS011;23307;51.136;14.942;2022-11-20T08:04:54;24.93;;;15.03;;
37445;SDS011;23307;51.136;14.942;2022-11-20T08:07:20;21.43;;;13.90;;
37445;SDS011;23307;51.136;14.942;2022-11-20T08:09:45;19.63;;;12.80;;
37445;SDS011;23307;51.136;14.942;2022-11-20T08:12:18;21.10;;;13.57;;
37445;SDS011;23307;51.136;14.942;2022-11-20T08:15:03;20.50;;;13.47;;
37445;SDS011;23307;51.136;14.942;2022-11-20T08:17:29;23.13;;;13.40;;
37445;SDS011;23307;51.136;14.942;2022-11-20T08:19:55;21.90;;;14.67;;
37445;SDS011;23307;51.136;14.942;2022-11-20T08:22:21;21.33;;;14.30;;
37445;SDS011;23307;51.136;14.942;2022-11-20T08:24:47;22.10;;;14.13;;
37445;SDS011;23307;51.136;14.942;2022-11-20T08:27:13;21.97;;;13.57;;
37445;SDS011;23307;51.136;14.942;2022-11-20T08:29:39;20.60;;;13.20;;
37445;SDS011;23307;51.136;14.942;2022-11-20T08:32:04;21.43;;;14.07;;
37445;SDS011;23307;51.136;14.942;2022-11-20T08:34:30;20.43;;;12.87;;
37445;SDS011;23307;51.136;14.942;2022-11-20T08:36:55;17.07;;;11.60;;
37445;SDS011;23307;51.136;14.942;2022-11-20T08:39:21;19.10;;;12.67;;
37445;SDS011;23307;51.136;14.942;2022-11-20T08:41:47;19.30;;;11.80;;
37445;SDS011;23307;51.136;14.942;2022-11-20T08:44:12;15.20;;;10.40;;
37445;SDS011;23307;51.136;14.942;2022-11-20T08:46:38;15.77;;;10.53;;
37445;SDS011;23307;51.136;14.942;2022-11-20T08:49:06;14.00;;;9.13;;
37445;SDS011;23307;51.136;14.942;2022-11-20T08:51:37;14.10;;;9.13;;
37445;SDS011;23307;51.136;14.942;2022-11-20T08:54:03;15.43;;;9.93;;
37445;SDS011;23307;51.136;14.942;2022-11-20T08:56:30;15.60;;;9.67;;
37445;SDS011;23307;51.136;14.942;2022-11-20T08:58:56;13.97;;;8.97;;
37445;SDS011;23307;51.136;14.942;2022-11-20T09:01:24;12.57;;;9.00;;
37445;SDS011;23307;51.136;14.942;2022-11-20T09:03:51;16.03;;;9.83;;
37445;SDS011;23307;51.136;14.942;2022-11-20T09:06:17;15.37;;;9.83;;
37445;SDS011;23307;51.136;14.942;2022-11-20T09:08:43;14.50;;;9.83;;
37445;SDS011;23307;51.136;14.942;2022-11-20T09:11:09;14.23;;;9.33;;
37445;SDS011;23307;51.136;14.942;2022-11-20T09:13:35;13.27;;;9.83;;
37445;SDS011;23307;51.136;14.942;2022-11-20T09:16:05;15.37;;;9.53;;
37445;SDS011;23307;51.136;14.942;2022-11-20T09:18:33;15.67;;;9.63;;
37445;SDS011;23307;51.136;14.942;2022-11-20T09:21:02;14.43;;;9.80;;
37445;SDS011;23307;51.136;14.942;2022-11-20T09:23:33;16.90;;;9.80;;
37445;SDS011;23307;51.136;14.942;2022-11-20T09:26:08;15.20;;;9.70;;
37445;SDS011;23307;51.136;14.942;2022-11-20T09:28:38;15.93;;;9.57;;
37445;SDS011;23307;51.136;14.942;2022-11-20T09:31:37;15.60;;;10.77;;
37445;SDS011;23307;51.136;14.942;2022-11-20T09:33:55;14.83;;;10.13;;
37445;SDS011;23307;51.136;14.942;2022-11-20T09:36:21;19.17;;;12.37;;
37445;SDS011;23307;51.136;14.942;2022-11-20T09:38:47;17.57;;;11.43;;
37445;SDS011;23307;51.136;14.942;2022-11-20T09:41:33;18.17;;;11.13;;
37445;SDS011;23307;51.136;14.942;2022-11-20T09:46:50;17.57;;;11.50;;
37445;SDS011;23307;51.136;14.942;2022-11-20T09:49:40;17.47;;;11.30;;
37445;SDS011;23307;51.136;14.942;2022-11-20T09:53:19;12.00;;;8.67;;
37445;SDS011;23307;51.136;14.942;2022-11-20T09:55:39;20.87;;;11.27;;
37445;SDS011;23307;51.136;14.942;2022-11-20T09:58:05;18.60;;;11.00;;
37445;SDS011;23307;51.136;14.942;2022-11-20T10:00:34;18.57;;;11.53;;
37445;SDS011;23307;51.136;14.942;2022-11-20T10:03:03;17.63;;;10.90;;
37445;SDS011;23307;51.136;14.942;2022-11-20T10:05:40;16.97;;;11.17;;
37445;SDS011;23307;51.136;14.942;2022-11-20T10:08:16;19.00;;;10.90;;
37445;SDS011;23307;51.136;14.942;2022-11-20T10:10:54;18.63;;;11.83;;
37445;SDS011;23307;51.136;14.942;2022-11-20T10:24:43;16.67;;;10.13;;
37445;SDS011;23307;51.136;14.942;2022-11-20T10:30:15;18.47;;;11.57;;
37445;SDS011;23307;51.136;14.942;2022-11-20T10:32:44;18.27;;;11.37;;
37445;SDS011;23307;51.136;14.942;2022-11-20T10:37:39;20.27;;;12.30;;
37445;SDS011;23307;51.136;14.942;2022-11-20T10:42:56;19.07;;;12.33;;
37445;SDS011;23307;51.136;14.942;2022-11-20T10:47:56;22.90;;;14.83;;
37445;SDS011;23307;51.136;14.942;2022-11-20T10:56:39;17.83;;;12.43;;
37445;SDS011;23307;51.136;14.942;2022-11-20T11:02:16;17.87;;;11.13;;
37445;SDS011;23307;51.136;14.942;2022-11-20T11:04:47;16.37;;;11.13;;
37445;SDS011;23307;51.136;14.942;2022-11-20T11:07:16;19.40;;;13.03;;
37445;SDS011;23307;51.136;14.942;2022-11-20T11:09:50;20.50;;;12.97;;
37445;SDS011;23307;51.136;14.942;2022-11-20T11:12:18;18.93;;;12.30;;
37445;SDS011;23307;51.136;14.942;2022-11-20T11:14:49;18.47;;;12.17;;
37445;SDS011;23307;51.136;14.942;2022-11-20T11:17:20;21.33;;;13.20;;
37445;SDS011;23307;51.136;14.942;2022-11-20T11:20:11;18.43;;;12.63;;
37445;SDS011;23307;51.136;14.942;2022-11-20T11:22:48;18.63;;;12.70;;
37445;SDS011;23307;51.136;14.942;2022-11-20T11:25:31;17.53;;;11.73;;
37445;SDS011;23307;51.136;14.942;2022-11-20T11:28:02;19.47;;;12.17;;
37445;SDS011;23307;51.136;14.942;2022-11-20T11:30:50;19.40;;;12.80;;
37445;SDS011;23307;51.136;14.942;2022-11-20T11:33:38;20.00;;;12.73;;
37445;SDS011;23307;51.136;14.942;2022-11-20T11:36:03;18.50;;;12.67;;
37445;SDS011;23307;51.136;14.942;2022-11-20T11:38:41;18.87;;;12.57;;
37445;SDS011;23307;51.136;14.942;2022-11-20T11:41:09;17.17;;;11.70;;
37445;SDS011;23307;51.136;14.942;2022-11-20T11:43:48;19.87;;;11.27;;
37445;SDS011;23307;51.136;14.942;2022-11-20T11:46:37;20.03;;;11.60;;
37445;SDS011;23307;51.136;14.942;2022-11-20T11:51:44;16.83;;;11.57;;
37445;SDS011;23307;51.136;14.942;2022-11-20T11:54:42;16.90;;;10.50;;
37445;SDS011;23307;51.136;14.942;2022-11-20T11:59:57;20.23;;;12.83;;
37445;SDS011;23307;51.136;14.942;2022-11-20T12:05:20;21.97;;;13.97;;
37445;SDS011;23307;51.136;14.942;2022-11-20T12:10:20;18.73;;;13.30;;
37445;SDS011;23307;51.136;14.942;2022-11-20T12:12:50;19.83;;;12.47;;
37445;SDS011;23307;51.136;14.942;2022-11-20T12:15:36;18.73;;;12.33;;
37445;SDS011;23307;51.136;14.942;2022-11-20T12:18:10;17.50;;;12.67;;
37445;SDS011;23307;51.136;14.942;2022-11-20T12:20:41;18.20;;;12.13;;
37445;SDS011;23307;51.136;14.942;2022-11-20T12:26:48;18.23;;;13.40;;
37445;SDS011;23307;51.136;14.942;2022-11-20T12:39:51;19.77;;;13.63;;
37445;SDS011;23307;51.136;14.942;2022-11-20T12:42:37;19.70;;;12.67;;
37445;SDS011;23307;51.136;14.942;2022-11-20T12:45:42;16.83;;;12.33;;
37445;SDS011;23307;51.136;14.942;2022-11-20T12:53:53;19.07;;;12.60;;
37445;SDS011;23307;51.136;14.942;2022-11-20T12:56:55;16.17;;;11.50;;
37445;SDS011;23307;51.136;14.942;2022-11-20T12:59:26;20.73;;;14.10;;
37445;SDS011;23307;51.136;14.942;2022-11-20T13:02:05;19.27;;;12.87;;
37445;SDS011;23307;51.136;14.942;2022-11-20T13:07:17;16.73;;;11.63;;
37445;SDS011;23307;51.136;14.942;2022-11-20T13:09:47;17.00;;;11.47;;
37445;SDS011;23307;51.136;14.942;2022-11-20T13:12:16;15.77;;;10.67;;
37445;SDS011;23307;51.136;14.942;2022-11-20T13:17:33;16.93;;;11.20;;
37445;SDS011;23307;51.136;14.942;2022-11-20T13:20:09;15.40;;;10.53;;
37445;SDS011;23307;51.136;14.942;2022-11-20T13:22:43;15.57;;;10.67;;
37445;SDS011;23307;51.136;14.942;2022-11-20T13:25:21;15.67;;;11.07;;
37445;SDS011;23307;51.136;14.942;2022-11-20T13:27:51;16.03;;;11.37;;
37445;SDS011;23307;51.136;14.942;2022-11-20T13:30:19;15.50;;;10.97;;
37445;SDS011;23307;51.136;14.942;2022-11-20T13:32:56;15.03;;;10.90;;
37445;SDS011;23307;51.136;14.942;2022-11-20T13:35:33;17.03;;;11.37;;
37445;SDS011;23307;51.136;14.942;2022-11-20T13:40:29;18.10;;;10.57;;
37445;SDS011;23307;51.136;14.942;2022-11-20T13:48:24;16.40;;;11.20;;
37445;SDS011;23307;51.136;14.942;2022-11-20T13:51:02;16.83;;;11.23;;
37445;SDS011;23307;51.136;14.942;2022-11-20T14:01:49;18.20;;;11.13;;
37445;SDS011;23307;51.136;14.942;2022-11-20T14:04:15;18.53;;;12.50;;
37445;SDS011;23307;51.136;14.942;2022-11-20T14:06:47;19.17;;;12.10;;
37445;SDS011;23307;51.136;14.942;2022-11-20T14:11:53;23.10;;;13.77;;
37445;SDS011;23307;51.136;14.942;2022-11-20T14:14:20;24.23;;;14.43;;
37445;SDS011;23307;51.136;14.942;2022-11-20T14:16:47;20.27;;;13.50;;
37445;SDS011;23307;51.136;14.942;2022-11-20T14:19:25;20.30;;;13.67;;
37445;SDS011;23307;51.136;14.942;2022-11-20T14:21:54;20.03;;;13.30;;
37445;SDS011;23307;51.136;14.942;2022-11-20T14:24:34;20.67;;;13.37;;
37445;SDS011;23307;51.136;14.942;2022-11-20T14:27:01;24.77;;;16.37;;
37445;SDS011;23307;51.136;14.942;2022-11-20T14:29:36;24.63;;;15.60;;
37445;SDS011;23307;51.136;14.942;2022-11-20T14:32:03;23.07;;;14.47;;
37445;SDS011;23307;51.136;14.942;2022-11-20T14:34:30;19.53;;;13.73;;
37445;SDS011;23307;51.136;14.942;2022-11-20T14:37:01;21.77;;;14.90;;
37445;SDS011;23307;51.136;14.942;2022-11-20T14:39:41;21.13;;;14.23;;
37445;SDS011;23307;51.136;14.942;2022-11-20T14:42:15;21.00;;;13.73;;
37445;SDS011;23307;51.136;14.942;2022-11-20T14:44:43;22.57;;;13.50;;
37445;SDS011;23307;51.136;14.942;2022-11-20T14:47:10;23.20;;;15.00;;
37445;SDS011;23307;51.136;14.942;2022-11-20T14:49:37;21.20;;;13.30;;
37445;SDS011;23307;51.136;14.942;2022-11-20T14:52:12;23.87;;;15.20;;
37445;SDS011;23307;51.136;14.942;2022-11-20T15:00:17;24.80;;;14.80;;
37445;SDS011;23307;51.136;14.942;2022-11-20T15:02:45;28.40;;;17.67;;
37445;SDS011;23307;51.136;14.942;2022-11-20T15:05:13;24.53;;;14.80;;
37445;SDS011;23307;51.136;14.942;2022-11-20T15:07:41;25.27;;;15.40;;
37445;SDS011;23307;51.136;14.942;2022-11-20T15:10:23;24.33;;;15.27;;
37445;SDS011;23307;51.136;14.942;2022-11-20T15:12:54;30.13;;;15.30;;
37445;SDS011;23307;51.136;14.942;2022-11-20T15:15:26;22.47;;;15.03;;
37445;SDS011;23307;51.136;14.942;2022-11-20T15:18:21;24.67;;;15.63;;
37445;SDS011;23307;51.136;14.942;2022-11-20T15:20:49;25.47;;;15.90;;
37445;SDS011;23307;51.136;14.942;2022-11-20T15:23:16;27.87;;;16.30;;
37445;SDS011;23307;51.136;14.942;2022-11-20T15:25:46;25.40;;;16.03;;
37445;SDS011;23307;51.136;14.942;2022-11-20T15:28:16;27.47;;;16.07;;
37445;SDS011;23307;51.136;14.942;2022-11-20T15:30:54;24.70;;;16.23;;
37445;SDS011;23307;51.136;14.942;2022-11-20T15:33:20;27.80;;;18.30;;
37445;SDS011;23307;51.136;14.942;2022-11-20T15:35:46;27.87;;;16.93;;
37445;SDS011;23307;51.136;14.942;2022-11-20T15:38:11;30.47;;;19.43;;
37445;SDS011;23307;51.136;14.942;2022-11-20T15:40:37;27.37;;;17.63;;
37445;SDS011;23307;51.136;14.942;2022-11-20T15:43:03;28.30;;;16.67;;
37445;SDS011;23307;51.136;14.942;2022-11-20T15:45:39;25.23;;;15.77;;
37445;SDS011;23307;51.136;14.942;2022-11-20T15:48:16;27.53;;;16.87;;
37445;SDS011;23307;51.136;14.942;2022-11-20T15:50:57;26.83;;;17.57;;
37445;SDS011;23307;51.136;14.942;2022-11-20T15:53:26;26.73;;;17.20;;
37445;SDS011;23307;51.136;14.942;2022-11-20T15:55:52;24.67;;;15.87;;
37445;SDS011;23307;51.136;14.942;2022-11-20T15:58:18;26.07;;;16.63;;
37445;SDS011;23307;51.136;14.942;2022-11-20T16:00:43;28.63;;;18.33;;
37445;SDS011;23307;51.136;14.942;2022-11-20T16:03:12;28.57;;;16.77;;
37445;SDS011;23307;51.136;14.942;2022-11-20T16:05:39;29.07;;;18.30;;